Portada
METAR-TAF:

METAR-TAF

Aeroports :

Longreach, Austràlia

latitud: 23-26-03S, longitud: 144-16-49E, altitud: 191 m

Observació

L'informe es va fer fa 17 minuts, a les 13:00 UTC
Vent 8 kt del Est/Nord-Est
Temperatura 14°C
Humitat 33%
Pressió 1017 hPa
Visibilitat 10 km o més

METAR: YLRE 151300Z AUTO 07008KT 9999 // NCD 14/M02 Q1017

Hora: 23:17 (13:17 UTC)


TAF: manca

Observacions i pronòstics meteorològics de més de 4000 aeroports (METAR i TAF).

Les estacions disponibles són els punts grocs i vermells al mapa.

Posi el ratolí al punt desitjat per veure el nom de l'estació.

Feu clic per veure les observacions i els pronòstics meteorològics.

Per canviar el mapa: feu clic els botons verds amb una creu de color negre per apropar; al botó verd amb un guió per allunyar la imatge; o en les fletxes verdes per a mapes adjacents.


METAR-TAF: